Time;durP1;ratioP1;P1;durP2;ratioP2;P2;SDS_P1;SDS_P2;PMS_P1;PMS_P2;Temp;Humidity;BMP_temperature;BMP_pressure;BME280_temperature;BME280_humidity;BME280_pressure;Samples;Min_cycle;Max_cycle;Signal;HPM_P1;HPM_P2
2023/03/01 05:00:55;;;;;;;14.27;10.07;;;;;;;8.18;58.40;101474.37;5613651;31;76572;-54
2023/03/01 05:04:02;;;;;;;17.35;10.57;;;;;;;8.18;58.40;101474.37;5603165;31;33352;-55
2023/03/01 05:07:04;;;;;;;15.13;10.20;;;;;;;7.90;81.94;101496.47;5603496;31;34335;-55
2023/03/01 05:10:08;;;;;;;16.55;11.20;;;;;;;7.99;62.69;101486.25;5603408;31;33526;-55
2023/03/01 05:13:10;;;;;;;15.38;10.52;;;;;;;7.92;69.46;101490.91;5602956;31;33162;-55
2023/03/01 05:16:12;;;;;;;15.15;10.25;;;;;;;8.08;77.51;101492.03;5603165;31;34264;-55
2023/03/01 05:19:22;;;;;;;15.18;10.70;;;;;;;8.39;83.33;101496.16;5603288;31;33848;-55
2023/03/01 05:22:25;;;;;;;15.85;10.40;;;;;;;8.17;73.65;101496.75;5600370;31;33747;-56
2023/03/01 05:25:32;;;;;;;18.05;10.82;;;;;;;8.20;63.10;101490.13;5583792;32;33510;-55
2023/03/01 05:28:35;;;;;;;15.30;9.85;;;;;;;8.15;75.52;101500.75;5583491;31;34226;-55
2023/03/01 05:31:37;;;;;;;16.55;10.82;;;;;;;8.24;65.06;101502.81;5583687;31;34219;-55
2023/03/01 05:34:40;;;;;;;14.93;10.05;;;;;;;7.99;59.75;101492.41;5600666;31;33546;-55
2023/03/01 05:37:45;;;;;;;15.80;10.52;;;;;;;7.98;66.16;101496.12;5602941;31;34218;-55
2023/03/01 05:40:48;;;;;;;15.35;10.15;;;;;;;8.11;63.92;101500.41;5603218;31;33702;-55
2023/03/01 05:43:50;;;;;;;14.77;10.35;;;;;;;7.91;65.17;101487.44;5589957;31;33316;-55
2023/03/01 05:46:53;;;;;;;13.88;9.98;;;;;;;7.81;57.55;101491.72;5586670;31;33758;-55
2023/03/01 05:49:55;;;;;;;13.55;10.15;;;;;;;7.81;61.51;101497.87;5583241;31;33941;-55
2023/03/01 05:52:59;;;;;;;15.57;9.52;;;;;;;8.09;59.16;101499.00;5582315;31;33509;-55
2023/03/01 05:56:05;;;;;;;14.98;10.55;;;;;;;8.11;72.75;101500.41;5583067;31;33727;-55
2023/03/01 05:59:08;;;;;;;;;;;;;;;7.95;59.95;101501.94;5586020;31;33524;-55
2023/03/01 06:02:10;;;;;;;13.38;9.55;;;;;;;7.96;82.00;101508.88;5599571;31;33923;-55
2023/03/01 06:05:13;;;;;;;12.73;9.40;;;;;;;8.23;76.98;101509.19;5591212;31;33750;-55
2023/03/01 06:08:15;;;;;;;13.13;9.07;;;;;;;7.88;57.92;101508.44;5599879;31;33734;-55
2023/03/01 06:11:19;;;;;;;14.80;9.10;;;;;;;7.99;59.75;101508.44;5579478;31;33801;-55
2023/03/01 06:14:22;;;;;;;14.68;9.80;;;;;;;8.08;67.46;101506.22;5581096;31;34244;-55
2023/03/01 06:17:25;;;;;;;12.60;9.25;;;;;;;8.38;62.60;101505.22;5587984;31;33211;-55
2023/03/01 06:20:28;;;;;;;14.35;9.52;;;;;;;8.24;70.25;101512.66;5589040;31;33617;-55
2023/03/01 06:23:32;;;;;;;15.52;9.75;;;;;;;8.14;66.52;101510.59;5587527;31;33178;-55
2023/03/01 06:26:34;;;;;;;16.37;10.73;;;;;;;8.58;75.32;101507.47;5589327;31;33853;-56
2023/03/01 06:29:36;;;;;;;14.05;10.68;;;;;;;8.27;65.50;101514.03;5588977;31;34339;-57
2023/03/01 06:32:41;;;;;;;14.27;10.43;;;;;;;8.54;70.01;101509.78;5586834;31;34457;-57
2023/03/01 06:35:44;;;;;;;16.25;11.50;;;;;;;8.64;78.14;101517.19;5584230;31;34333;-57
2023/03/01 06:38:46;;;;;;;14.45;10.45;;;;;;;8.61;78.47;101526.53;5570900;31;33528;-57
2023/03/01 06:41:48;;;;;;;17.92;11.80;;;;;;;8.70;69.04;101529.59;5569302;31;34373;-57
2023/03/01 06:44:51;;;;;;;18.35;11.93;;;;;;;8.62;60.11;101528.13;5569262;31;34468;-57
2023/03/01 06:48:02;;;;;;;18.87;12.07;;;;;;;8.60;64.91;101534.75;5568232;31;34327;-57
2023/03/01 06:51:04;;;;;;;17.08;11.75;;;;;;;8.69;63.69;101531.47;5568243;32;34490;-57
2023/03/01 06:54:08;;;;;;;18.27;11.93;;;;;;;8.37;59.21;101530.28;5568506;32;33683;-57
2023/03/01 06:57:10;;;;;;;16.48;12.32;;;;;;;8.26;62.96;101534.63;5581761;31;33668;-57
2023/03/01 07:00:13;;;;;;;18.25;12.40;;;;;;;8.56;63.15;101536.28;5588125;31;33907;-57
2023/03/01 07:03:16;;;;;;;16.80;12.43;;;;;;;8.36;67.40;101528.66;5588477;31;34051;-57
2023/03/01 07:06:18;;;;;;;16.87;12.02;;;;;;;8.43;62.31;101535.50;5579603;31;33552;-57
2023/03/01 07:09:22;;;;;;;20.52;12.32;;;;;;;8.55;62.11;101529.34;5566525;31;33262;-57
2023/03/01 07:12:25;;;;;;;16.42;12.02;;;;;;;8.24;56.66;101528.69;5559574;31;33659;-57
2023/03/01 07:15:28;;;;;;;19.17;11.52;;;;;;;8.44;72.04;101529.13;5556884;31;33922;-57
2023/03/01 07:18:31;;;;;;;16.37;10.98;;;;;;;8.39;58.14;101526.34;5562989;31;32446;-57
2023/03/01 07:21:33;;;;;;;18.30;11.20;;;;;;;8.19;73.51;101531.25;5561025;32;34813;-57
2023/03/01 07:24:36;;;;;;;18.77;11.52;;;;;;;8.36;57.80;101531.34;5557039;31;34258;-57
2023/03/01 07:27:38;;;;;;;15.18;10.98;;;;;;;8.33;57.84;101526.47;5560168;31;33670;-57
2023/03/01 07:30:40;;;;;;;17.20;12.05;;;;;;;8.56;66.43;101525.59;5560670;32;33204;-55
2023/03/01 07:33:43;;;;;;;13.00;10.52;;;;;;;8.63;79.58;101524.41;5560308;31;34385;-55
2023/03/01 07:36:45;;;;;;;16.15;10.93;;;;;;;8.52;64.39;101521.78;5559583;31;33558;-55
2023/03/01 07:39:47;;;;;;;16.52;11.43;;;;;;;8.60;60.51;101527.56;5557079;32;33631;-55
2023/03/01 07:42:55;;;;;;;18.37;11.30;;;;;;;8.66;63.27;101523.94;5555032;31;33683;-55
2023/03/01 07:46:01;;;;;;;15.85;10.90;;;;;;;8.60;55.62;101524.87;5555051;31;33686;-55
2023/03/01 07:49:05;;;;;;;17.55;10.90;;;;;;;8.68;58.30;101529.06;5556529;31;33740;-56
2023/03/01 07:52:10;;;;;;;17.45;9.90;;;;;;;8.84;68.47;101525.59;5552608;31;34269;-55
2023/03/01 07:55:14;;;;;;;17.37;11.10;;;;;;;8.68;54.96;101521.84;5553055;31;33773;-55
2023/03/01 07:58:16;;;;;;;16.17;10.13;;;;;;;8.80;60.13;101512.94;5558755;31;34106;-55
2023/03/01 08:01:21;;;;;;;12.82;10.00;;;;;;;8.73;73.55;101512.28;5561672;32;33623;-55
2023/03/01 08:04:26;;;;;;;15.90;10.98;;;;;;;9.15;81.01;101510.06;5563909;31;34207;-55
2023/03/01 08:07:28;;;;;;;17.65;10.07;;;;;;;9.25;80.25;101510.22;5565998;31;34398;-56
2023/03/01 08:10:31;;;;;;;18.90;10.25;;;;;;;9.01;54.46;101516.81;5556448;31;33958;-55
2023/03/01 08:13:33;;;;;;;16.55;10.00;;;;;;;8.89;66.47;101514.19;5561083;31;33557;-55
2023/03/01 08:16:36;;;;;;;17.75;11.02;;;;;;;8.76;55.04;101523.31;5560484;31;33619;-55
2023/03/01 08:19:39;;;;;;;16.45;10.88;;;;;;;9.05;74.22;101508.03;5563381;32;34306;-55
2023/03/01 08:22:41;;;;;;;16.37;10.38;;;;;;;9.21;63.20;101502.94;5555948;32;33351;-55
2023/03/01 08:25:43;;;;;;;18.98;11.40;;;;;;;9.21;67.98;101508.31;5556251;31;33315;-55
2023/03/01 08:28:48;;;;;;;18.55;10.75;;;;;;;9.33;62.44;101501.78;5556091;32;33175;-56
2023/03/01 08:31:50;;;;;;;17.85;11.32;;;;;;;9.35;64.41;101499.69;5560196;31;33242;-55
2023/03/01 08:34:53;;;;;;;16.45;11.05;;;;;;;9.36;66.99;101497.81;5564426;31;33965;-55
2023/03/01 08:37:55;;;;;;;16.25;11.73;;;;;;;9.23;52.54;101484.75;5565231;31;33612;-55
2023/03/01 08:41:00;;;;;;;15.68;11.02;;;;;;;9.29;61.39;101495.31;5562668;31;33258;-55
2023/03/01 08:44:03;;;;;;;17.27;10.55;;;;;;;9.29;62.52;101492.62;5565020;32;34441;-55
2023/03/01 08:47:05;;;;;;;16.65;10.52;;;;;;;9.25;54.32;101491.50;5565268;31;33692;-55
2023/03/01 08:50:08;;;;;;;14.87;10.68;;;;;;;9.38;66.66;101491.16;5563268;31;33262;-55
2023/03/01 08:53:11;;;;;;;25.65;11.93;;;;;;;9.28;72.01;101485.66;5558796;31;33304;-55
2023/03/01 08:56:14;;;;;;;15.98;11.25;;;;;;;9.33;58.69;101482.25;5563882;31;34309;-55
2023/03/01 08:59:18;;;;;;;17.98;11.02;;;;;;;9.06;52.62;101474.88;5556255;31;33618;-55
2023/03/01 09:02:20;;;;;;;20.05;11.52;;;;;;;9.20;55.04;101469.19;5561710;31;33704;-55
2023/03/01 09:05:23;;;;;;;18.15;11.52;;;;;;;9.17;56.62;101459.78;5558358;31;33170;-55
2023/03/01 09:08:25;;;;;;;15.77;11.82;;;;;;;9.54;61.85;101472.66;5554938;32;33596;-55
2023/03/01 09:11:28;;;;;;;18.00;11.77;;;;;;;9.49;56.82;101480.63;5562281;31;33337;-55
2023/03/01 09:14:30;;;;;;;20.73;11.90;;;;;;;9.66;57.16;101465.31;5560647;31;34106;-55
2023/03/01 09:17:32;;;;;;;19.20;11.52;;;;;;;9.68;59.64;101459.72;5563619;31;34766;-55
2023/03/01 09:20:35;;;;;;;18.20;12.15;;;;;;;9.83;72.57;101457.25;5561816;31;34361;-55
2023/03/01 09:23:39;;;;;;;18.08;12.15;;;;;;;9.77;60.94;101448.34;5559221;31;33581;-56
2023/03/01 09:26:42;;;;;;;19.60;12.45;;;;;;;9.85;60.16;101441.75;5564491;31;33694;-55
2023/03/01 09:29:45;;;;;;;19.20;12.48;;;;;;;10.03;62.14;101435.25;5556543;31;32428;-57
2023/03/01 09:32:47;;;;;;;18.00;12.65;;;;;;;9.81;52.40;101438.75;5559562;31;33911;-57
2023/03/01 09:35:50;;;;;;;31.58;15.10;;;;;;;9.82;53.01;101439.56;5562246;31;34433;-57
2023/03/01 09:38:54;;;;;;;17.42;12.30;;;;;;;9.63;72.56;101431.84;5555060;31;33961;-55
2023/03/01 09:42:04;;;;;;;19.90;11.90;;;;;;;9.90;59.81;101423.06;5554899;31;34410;-55
2023/03/01 09:45:14;;;;;;;15.88;11.45;;;;;;;9.83;60.80;101417.06;5548277;32;33726;-55
2023/03/01 09:48:24;;;;;;;17.00;11.93;;;;;;;10.21;81.16;101418.03;5563438;31;33561;-55
2023/03/01 09:51:31;;;;;;;18.23;12.27;;;;;;;10.14;63.92;101415.56;5552832;31;33999;-55
2023/03/01 09:54:33;;;;;;;15.50;11.38;;;;;;;10.03;53.00;101411.12;5566484;31;33686;-55
2023/03/01 09:57:35;;;;;;;20.42;12.50;;;;;;;10.20;58.63;101414.56;5565781;32;34466;-55
2023/03/01 10:00:41;;;;;;;16.75;12.20;;;;;;;10.04;56.64;101405.53;5557252;31;33667;-55
2023/03/01 10:04:00;;;;;;;15.20;11.07;;;;;;;9.81;67.63;101405.81;5551655;31;34354;-55
2023/03/01 10:07:09;;;;;;;18.67;12.65;;;;;;;10.03;72.83;101405.78;5568058;31;33671;-55
2023/03/01 10:10:26;;;;;;;16.20;11.85;;;;;;;10.20;58.80;101409.19;5563584;31;33715;-55
2023/03/01 10:13:57;;;;;;;;;;;;;;;10.47;67.29;101400.38;5563184;32;33835;-55
2023/03/01 10:17:24;;;;;;;20.60;12.80;;;;;;;10.57;67.86;101403.94;5550040;31;34642;-55
2023/03/01 10:20:30;;;;;;;;;;;;;;;10.26;51.81;101386.75;5553102;31;33346;-55
2023/03/01 10:23:35;;;;;;;16.87;12.40;;;;;;;10.18;69.94;101383.72;5561342;31;34116;-56
2023/03/01 10:26:57;;;;;;;20.35;14.10;;;;;;;10.45;64.54;101378.38;5560534;31;34363;-55
2023/03/01 10:30:13;;;;;;;23.40;13.10;;;;;;;10.26;53.96;101370.69;5556988;31;34380;-55
2023/03/01 10:33:35;;;;;;;16.05;12.15;;;;;;;10.27;62.44;101366.16;5567415;31;33351;-55
2023/03/01 10:36:40;;;;;;;17.40;12.00;;;;;;;10.54;64.57;101363.44;5562767;31;33017;-55
2023/03/01 10:39:59;;;;;;;18.58;12.13;;;;;;;10.79;75.19;101365.50;5561081;31;33705;-55
2023/03/01 10:43:05;;;;;;;16.30;11.12;;;;;;;10.68;56.94;101364.63;5563771;31;33670;-55
2023/03/01 10:46:35;;;;;;;17.98;12.95;;;;;;;10.80;57.01;101356.41;5565483;31;33079;-55
2023/03/01 10:49:38;;;;;;;17.87;11.85;;;;;;;10.77;60.89;101344.31;5561106;31;33835;-55
2023/03/01 10:52:41;;;;;;;16.62;11.73;;;;;;;10.69;68.17;101341.28;5565169;31;34131;-55
2023/03/01 10:55:44;;;;;;;17.17;12.18;;;;;;;10.63;49.81;101336.94;5564484;31;34457;-55
2023/03/01 10:59:02;;;;;;;18.33;11.45;;;;;;;10.47;68.21;101328.81;5563253;31;33761;-55
2023/03/01 11:02:25;;;;;;;19.73;12.77;;;;;;;10.72;62.90;101319.31;5564998;31;33761;-55
2023/03/01 11:05:30;;;;;;;16.70;11.52;;;;;;;10.68;57.55;101318.22;5566620;32;33467;-55
2023/03/01 11:08:39;;;;;;;16.10;11.63;;;;;;;10.90;58.12;101318.91;5555826;31;32409;-55
2023/03/01 11:11:42;;;;;;;16.15;11.75;;;;;;;10.96;53.31;101314.38;5557501;31;33895;-55
2023/03/01 11:14:52;;;;;;;17.58;10.32;;;;;;;10.63;49.46;101308.28;5565478;31;34370;-55
2023/03/01 11:17:56;;;;;;;13.43;9.13;;;;;;;10.81;58.05;101307.84;5558754;32;34321;-55
2023/03/01 11:21:16;;;;;;;16.45;11.12;;;;;;;10.91;52.06;101301.75;5566664;32;34392;-55
2023/03/01 11:24:23;;;;;;;16.00;12.10;;;;;;;11.24;57.38;101300.56;5562440;31;33773;-55
2023/03/01 11:27:32;;;;;;;12.95;10.18;;;;;;;11.15;53.57;101298.66;5564720;32;33661;-55
2023/03/01 11:30:49;;;;;;;19.33;10.32;;;;;;;11.04;56.36;101305.84;5565562;32;34147;-55
2023/03/01 11:34:17;;;;;;;13.88;10.63;;;;;;;11.26;52.20;101293.06;5563105;31;34379;-55
2023/03/01 11:37:28;;;;;;;14.10;9.93;;;;;;;11.01;52.68;101299.13;5567060;31;33793;-56
2023/03/01 11:40:44;;;;;;;14.57;10.00;;;;;;;11.25;60.90;101296.81;5565463;31;34318;-55
2023/03/01 11:44:16;;;;;;;13.13;9.67;;;;;;;11.17;51.63;101285.78;5564128;31;34427;-56
2023/03/01 11:47:18;;;;;;;14.52;10.32;;;;;;;11.20;50.67;101282.56;5562504;31;34319;-55
2023/03/01 11:50:30;;;;;;;15.13;9.00;;;;;;;11.24;55.17;101289.84;5562995;31;33594;-55
2023/03/01 11:53:59;;;;;;;12.75;8.68;;;;;;;11.45;54.89;101288.03;5559749;31;33037;-56
2023/03/01 11:57:36;;;;;;;11.25;8.52;;;;;;;11.68;63.03;101275.19;5562379;31;34422;-56
2023/03/01 12:00:57;;;;;;;10.98;8.07;;;;;;;11.94;59.74;101271.50;5564808;32;33599;-55
2023/03/01 12:04:59;;;;;;;13.07;8.75;;;;;;;12.15;65.88;101271.53;5564534;31;33446;-55
2023/03/01 12:08:05;;;;;;;12.90;9.07;;;;;;;11.86;49.19;101271.25;5534932;31;34107;-56
2023/03/01 12:11:14;;;;;;;15.68;9.05;;;;;;;11.80;49.53;101266.91;5559095;31;33611;-56
2023/03/01 12:14:37;;;;;;;16.73;8.43;;;;;;;11.76;50.91;101262.06;5562679;31;34464;-55
2023/03/01 12:18:13;;;;;;;11.10;8.35;;;;;;;12.03;60.80;101257.56;5561057;31;33628;-56
2023/03/01 12:21:28;;;;;;;10.00;7.45;;;;;;;12.18;56.89;101249.47;5564013;31;33729;-55
2023/03/01 12:24:49;;;;;;;16.07;10.17;;;;;;;12.15;65.26;101233.87;5563181;31;33689;-55
2023/03/01 12:28:21;;;;;;;16.10;10.35;;;;;;;12.32;49.42;101233.63;5561137;31;33707;-55
2023/03/01 12:31:43;;;;;;;12.18;9.23;;;;;;;12.30;52.82;101231.19;5556843;31;34361;-55
2023/03/01 12:35:00;;;;;;;13.77;9.77;;;;;;;12.27;54.06;101222.88;5548427;32;34347;-56
2023/03/01 12:38:37;;;;;;;11.95;9.10;;;;;;;12.26;49.40;101224.75;5560802;31;34362;-55
2023/03/01 12:42:00;;;;;;;15.95;9.38;;;;;;;12.27;52.60;101220.19;5561511;31;33912;-56
2023/03/01 12:45:32;;;;;;;13.40;8.88;;;;;;;12.36;49.05;101221.25;5563065;31;33270;-55
2023/03/01 12:48:59;;;;;;;15.10;9.70;;;;;;;12.19;51.91;101216.97;5559060;31;33430;-55
2023/03/01 12:52:11;;;;;;;14.20;10.00;;;;;;;12.12;48.95;101210.22;5556259;31;34347;-55
2023/03/01 12:55:31;;;;;;;11.48;8.80;;;;;;;12.29;61.89;101224.22;5558060;31;33249;-55
2023/03/01 12:58:52;;;;;;;17.67;9.80;;;;;;;12.32;58.59;101212.94;5560579;31;34273;-56
2023/03/01 13:02:13;;;;;;;18.10;10.65;;;;;;;12.21;64.68;101212.13;5564279;31;34408;-55
2023/03/01 13:05:53;;;;;;;14.45;7.43;;;;;;;12.30;61.47;101206.19;5585725;31;34447;-55
2023/03/01 13:09:04;;;;;;;11.18;7.20;;;;;;;12.41;61.17;101202.41;5586330;31;34382;-55
2023/03/01 13:12:46;;;;;;;11.82;7.28;;;;;;;12.47;51.93;101204.00;5567663;32;33798;-55
2023/03/01 13:15:51;;;;;;;8.98;7.03;;;;;;;12.21;48.67;101206.72;5561368;32;34569;-55
2023/03/01 13:19:09;;;;;;;11.35;7.00;;;;;;;12.25;59.34;101200.81;5565130;32;33254;-55
2023/03/01 13:22:31;;;;;;;11.38;6.80;;;;;;;12.29;49.23;101191.16;5568602;32;34475;-55
2023/03/01 13:25:35;;;;;;;9.27;6.18;;;;;;;12.45;51.62;101196.22;5561734;32;34031;-55
2023/03/01 13:28:43;;;;;;;10.88;6.72;;;;;;;12.44;49.27;101178.47;5569345;32;33251;-55
2023/03/01 13:31:46;;;;;;;11.52;6.50;;;;;;;12.53;49.84;101167.97;5558586;32;33568;-55
2023/03/01 13:34:54;;;;;;;10.73;6.12;;;;;;;12.73;57.72;101175.16;5549734;32;33719;-55
2023/03/01 13:38:36;;;;;;;9.93;5.93;;;;;;;12.62;49.14;101173.59;5555783;32;34363;-56
2023/03/01 13:41:38;;;;;;;10.07;5.68;;;;;;;12.66;60.81;101175.44;5567520;32;33711;-55
2023/03/01 13:44:43;;;;;;;10.27;6.50;;;;;;;12.55;48.54;101162.28;5569529;32;33600;-55
2023/03/01 13:47:49;;;;;;;9.23;6.20;;;;;;;12.31;46.52;101162.09;5563534;32;34433;-55
2023/03/01 13:50:57;;;;;;;11.55;6.10;;;;;;;12.52;64.94;101155.59;5550316;32;34247;-55
2023/03/01 13:53:59;;;;;;;9.63;6.62;;;;;;;12.74;56.98;101147.16;5565428;32;33831;-55
2023/03/01 13:57:03;;;;;;;11.10;7.80;;;;;;;12.70;65.67;101143.41;5568593;32;34328;-55
2023/03/01 14:00:06;;;;;;;13.68;6.35;;;;;;;12.57;46.63;101144.81;5569534;32;34359;-55
2023/03/01 14:03:19;;;;;;;10.40;7.12;;;;;;;12.57;47.82;101144.81;5569843;32;33720;-55
2023/03/01 14:06:35;;;;;;;14.27;6.78;;;;;;;12.68;62.15;101141.03;5565200;32;33745;-55
2023/03/01 14:09:42;;;;;;;;;;;;;;;12.85;61.49;101139.88;5561317;32;33859;-55
2023/03/01 14:12:48;;;;;;;10.27;5.00;;;;;;;12.78;51.94;101132.09;5553123;32;34331;-55
2023/03/01 14:16:08;;;;;;;10.60;5.68;;;;;;;12.58;47.64;101124.09;5569519;32;34389;-56
2023/03/01 14:19:19;;;;;;;13.18;5.90;;;;;;;12.32;48.60;101121.50;5567269;32;33648;-55
2023/03/01 14:22:36;;;;;;;10.55;5.47;;;;;;;12.44;52.66;101115.81;5569442;32;33683;-55
2023/03/01 14:25:47;;;;;;;8.18;5.30;;;;;;;12.52;47.78;101115.25;5567497;32;34442;-55
2023/03/01 14:28:51;;;;;;;12.23;5.12;;;;;;;12.51;57.94;101119.00;5564613;32;33813;-55
2023/03/01 14:31:53;;;;;;;9.90;5.62;;;;;;;12.59;53.83;101106.91;5566137;32;34237;-56
2023/03/01 14:34:57;;;;;;;9.20;5.22;;;;;;;12.74;51.81;101104.13;5565820;32;33781;-55
2023/03/01 14:37:59;;;;;;;6.80;5.18;;;;;;;12.75;53.78;101092.31;5568994;32;33750;-55
2023/03/01 14:41:07;;;;;;;7.22;5.32;;;;;;;12.69;55.00;101094.19;5569409;32;33537;-55
2023/03/01 14:44:19;;;;;;;10.02;5.78;;;;;;;12.51;46.51;101086.75;5569419;32;34569;-55
2023/03/01 14:47:30;;;;;;;11.27;6.00;;;;;;;12.68;50.72;101086.38;5569494;32;33711;-55
2023/03/01 14:50:35;;;;;;;9.93;5.35;;;;;;;12.54;49.39;101078.13;5569573;32;34403;-55
2023/03/01 14:53:37;;;;;;;9.52;5.53;;;;;;;12.80;60.33;101086.88;5569491;32;33607;-56
2023/03/01 14:56:53;;;;;;;13.23;5.07;;;;;;;12.89;53.52;101082.53;5569103;32;34152;-55
2023/03/01 15:00:04;;;;;;;9.55;5.10;;;;;;;12.82;49.10;101092.00;5558884;32;34325;-56
2023/03/01 15:03:24;;;;;;;7.37;4.85;;;;;;;12.89;52.79;101079.84;5556285;32;34252;-55
2023/03/01 15:06:26;;;;;;;9.70;5.15;;;;;;;12.88;64.04;101077.41;5569142;32;34324;-55
2023/03/01 15:09:36;;;;;;;13.77;5.85;;;;;;;12.80;50.12;101078.00;5569045;32;34282;-55
2023/03/01 15:12:41;;;;;;;12.10;5.40;;;;;;;12.92;54.11;101075.78;5568993;32;33851;-55
2023/03/01 15:15:46;;;;;;;11.35;6.85;;;;;;;12.92;49.21;101076.59;5569587;32;33628;-55
2023/03/01 15:18:52;;;;;;;10.73;6.03;;;;;;;12.82;54.81;101076.66;5569238;32;33915;-56
2023/03/01 15:21:55;;;;;;;8.90;4.80;;;;;;;12.72;48.70;101075.91;5568978;32;33698;-56
2023/03/01 15:24:58;;;;;;;9.15;4.80;;;;;;;12.80;51.10;101073.41;5568666;32;33717;-56
2023/03/01 15:28:02;;;;;;;11.15;5.07;;;;;;;12.71;48.64;101077.78;5569148;32;34351;-55
2023/03/01 15:31:21;;;;;;;18.60;5.82;;;;;;;12.64;53.32;101080.75;5569326;32;33390;-55
2023/03/01 15:34:27;;;;;;;10.48;5.10;;;;;;;12.72;53.89;101078.59;5569255;32;33630;-55
2023/03/01 15:37:49;;;;;;;;;;;;;;;12.58;51.78;101076.50;5562314;32;33570;-55
2023/03/01 15:40:51;;;;;;;13.62;5.43;;;;;;;12.75;49.85;101078.00;5562852;32;34112;-55
2023/03/01 15:43:55;;;;;;;12.73;5.32;;;;;;;12.59;49.39;101080.00;5567129;32;33899;-55
2023/03/01 15:46:58;;;;;;;13.48;5.03;;;;;;;12.54;53.03;101075.44;5568472;32;33898;-55
2023/03/01 15:50:01;;;;;;;10.27;5.15;;;;;;;12.74;62.74;101077.22;5552332;32;33772;-55
2023/03/01 15:53:07;;;;;;;8.35;4.70;;;;;;;12.76;50.86;101074.25;5551740;32;34246;-55
2023/03/01 15:56:10;;;;;;;9.85;4.90;;;;;;;12.65;54.76;101073.53;5555051;32;34395;-56
2023/03/01 15:59:15;;;;;;;13.30;5.60;;;;;;;12.55;55.33;101079.75;5549880;32;33642;-55
2023/03/01 16:02:20;;;;;;;10.50;5.18;;;;;;;12.57;57.28;101074.88;5549696;32;33586;-55
2023/03/01 16:05:30;;;;;;;11.30;6.55;;;;;;;12.52;58.50;101079.50;5549932;32;33834;-55
2023/03/01 16:08:32;;;;;;;14.52;5.97;;;;;;;12.45;51.16;101087.87;5549895;32;33716;-55
2023/03/01 16:11:36;;;;;;;8.23;5.20;;;;;;;12.41;51.28;101090.28;5549946;32;34339;-55
2023/03/01 16:14:38;;;;;;;17.42;5.62;;;;;;;12.24;49.38;101089.81;5549853;32;33814;-55
2023/03/01 16:17:40;;;;;;;8.73;5.07;;;;;;;12.26;56.03;101090.34;5549858;32;33748;-55
2023/03/01 16:20:43;;;;;;;12.20;5.60;;;;;;;12.13;52.15;101097.09;5549667;32;33647;-55
2023/03/01 16:23:46;;;;;;;10.70;5.40;;;;;;;12.08;50.05;101088.22;5549689;32;33713;-55
2023/03/01 16:26:48;;;;;;;10.88;5.57;;;;;;;11.95;50.05;101097.66;5549127;32;33680;-55
2023/03/01 16:29:50;;;;;;;12.07;5.50;;;;;;;11.87;50.02;101096.34;5549526;32;33728;-55
2023/03/01 16:32:53;;;;;;;11.75;5.57;;;;;;;11.77;51.19;101110.56;5549506;32;33409;-55
2023/03/01 16:35:55;;;;;;;13.15;5.57;;;;;;;11.72;50.82;101099.84;5549581;32;34492;-55
2023/03/01 16:39:00;;;;;;;9.48;5.43;;;;;;;11.58;50.84;101097.94;5549681;32;34572;-55
2023/03/01 16:42:02;;;;;;;7.47;4.97;;;;;;;11.52;57.82;101102.50;5549460;32;33725;-55
